Meadville, Pennsylvania
Current Conditions -  °F | °C
As of 9:53 AM on Friday 24 Oct 2014 (Local Time) from KGKJ Reporting Station
Moderate Fog Moderate Fog  
Wind Chill: 43°   Ceiling: 200
Heat Index: 43°   Visibility: 0mi
Dew Point: 42°   Wind: 3mph
Humidity: 97%   Direction: NA
Pressure: 30.08"   Gusts: NA
Location:  41.64°N, 80.15°W
Report Text: KGKJ 241353Z AUTO VRB03KT M1/4SM FG VV002 06/06 A3008 RMK AO2 SLP191 T00610056 TSNO
Loading
Personal Weather Stations






























Interactive Weather Map
Tropical Storm Tracking
New forecast layout! Learn more

10-Day Weather Forecast

Advertisements
Track Severe Weather on mobile